Time;durP1;ratioP1;P1;durP2;ratioP2;P2;SDS_P1;SDS_P2;PMS_P1;PMS_P2;Temp;Humidity;BMP_temperature;BMP_pressure;BME280_temperature;BME280_humidity;BME280_pressure;Samples;Min_cycle;Max_cycle;Signal;HPM_P1;HPM_P2
2023/12/25 00:02:16;;;;;;;3.20;1.75;;;;;;;8.27;100.00;99161.69;6312209;28;20051;-73
2023/12/25 00:05:17;;;;;;;2.10;1.52;;;;;;;8.33;100.00;99153.47;6314988;28;20048;-72
2023/12/25 00:08:18;;;;;;;5.57;1.77;;;;;;;8.56;100.00;99138.16;6310247;28;20044;-77
2023/12/25 00:11:19;;;;;;;2.97;1.75;;;;;;;8.50;100.00;99135.97;6294175;28;20676;-77
2023/12/25 00:14:21;;;;;;;1.75;1.42;;;;;;;8.45;100.00;99129.31;6296846;28;20059;-77
2023/12/25 00:17:24;;;;;;;2.22;1.58;;;;;;;8.49;100.00;99118.72;6311979;28;20086;-73
2023/12/25 00:20:25;;;;;;;2.03;1.50;;;;;;;8.43;100.00;99104.34;6318360;28;20052;-77
2023/12/25 00:23:26;;;;;;;1.95;1.50;;;;;;;8.47;100.00;99087.63;6309126;28;20105;-72
2023/12/25 00:26:27;;;;;;;3.15;1.65;;;;;;;8.50;100.00;99084.78;6303104;28;20044;-73
2023/12/25 00:29:33;;;;;;;2.00;1.40;;;;;;;8.51;100.00;99116.84;6312627;28;20446;-77
2023/12/25 00:32:34;;;;;;;7.22;1.58;;;;;;;8.47;100.00;99130.03;6297102;28;20088;-72
2023/12/25 00:35:35;;;;;;;1.38;1.20;;;;;;;8.49;100.00;99152.50;6298998;28;20048;-77
2023/12/25 00:38:39;;;;;;;1.77;1.30;;;;;;;8.45;100.00;99159.69;6314115;28;20044;-76
2023/12/25 00:41:40;;;;;;;1.92;1.13;;;;;;;8.38;100.00;99150.56;6299089;28;20083;-72
2023/12/25 00:44:41;;;;;;;1.33;1.10;;;;;;;8.48;100.00;99162.06;6334852;27;20143;-72
2023/12/25 00:47:42;;;;;;;1.55;1.13;;;;;;;8.44;100.00;99187.44;6303146;28;20293;-76
2023/12/25 00:50:43;;;;;;;1.15;0.70;;;;;;;8.42;100.00;99185.84;6297478;28;20093;-76
2023/12/25 00:53:44;;;;;;;2.05;1.10;;;;;;;8.60;100.00;99181.22;6298408;28;20048;-76
2023/12/25 00:56:45;;;;;;;1.23;1.13;;;;;;;8.61;100.00;99172.50;6330513;27;20549;-72
2023/12/25 00:59:46;;;;;;;2.38;1.48;;;;;;;8.64;100.00;99160.09;6339774;27;20117;-77
2023/12/25 01:02:47;;;;;;;1.02;0.88;;;;;;;8.61;100.00;99159.50;6303090;28;20405;-76
2023/12/25 01:05:48;;;;;;;5.35;1.10;;;;;;;8.60;100.00;99150.00;6330581;28;20056;-76
2023/12/25 01:08:49;;;;;;;1.75;1.15;;;;;;;8.56;100.00;99148.56;6307364;28;20048;-76
2023/12/25 01:11:50;;;;;;;1.77;1.30;;;;;;;8.63;100.00;99147.22;6299395;28;20389;-71
2023/12/25 01:14:51;;;;;;;1.88;1.15;;;;;;;8.77;100.00;99173.13;6329759;27;20056;-76
2023/12/25 01:17:51;;;;;;;4.25;1.25;;;;;;;8.78;100.00;99186.97;6298640;28;20528;-75
2023/12/25 01:20:52;;;;;;;3.38;1.73;;;;;;;8.69;100.00;99175.41;6343416;27;20097;-74
2023/12/25 01:23:55;;;;;;;3.05;1.75;;;;;;;8.65;100.00;99179.16;6310887;28;20051;-78
2023/12/25 01:26:56;;;;;;;3.05;2.00;;;;;;;8.67;100.00;99177.28;6298077;28;20044;-73
2023/12/25 01:29:59;;;;;;;3.80;2.38;;;;;;;8.61;100.00;99180.28;6296973;28;20117;-73
2023/12/25 01:32:59;;;;;;;4.03;2.10;;;;;;;8.57;100.00;99184.84;6337485;27;20052;-73
2023/12/25 01:36:00;;;;;;;3.03;2.25;;;;;;;8.44;100.00;99187.44;6299495;28;20159;-74
2023/12/25 01:39:02;;;;;;;3.45;2.03;;;;;;;8.56;100.00;99190.16;6297745;28;20060;-75
2023/12/25 01:42:03;;;;;;;4.63;2.45;;;;;;;8.57;100.00;99187.47;6307741;28;20048;-74
2023/12/25 01:45:04;;;;;;;3.92;2.80;;;;;;;8.48;100.00;99172.47;6297078;28;20052;-74
2023/12/25 01:48:06;;;;;;;3.90;2.38;;;;;;;8.51;100.00;99171.44;6296692;28;20076;-78
2023/12/25 01:51:07;;;;;;;5.03;2.92;;;;;;;8.66;100.00;99173.84;6295111;28;20056;-79
2023/12/25 01:54:08;;;;;;;4.13;2.40;;;;;;;8.64;100.00;99185.28;6296603;28;20065;-79
2023/12/25 01:57:09;;;;;;;9.18;2.65;;;;;;;8.58;100.00;99173.50;6297473;28;20055;-79
2023/12/25 02:00:10;;;;;;;6.63;2.35;;;;;;;8.41;100.00;99185.03;6299416;28;20190;-79
2023/12/25 02:03:11;;;;;;;6.30;2.88;;;;;;;8.61;100.00;99180.28;6300287;28;20060;-79
2023/12/25 02:06:13;;;;;;;6.47;2.50;;;;;;;8.47;100.00;99196.81;6329211;27;20868;-78
2023/12/25 02:09:13;;;;;;;4.38;2.65;;;;;;;8.50;100.00;99180.16;6307842;28;20105;-74
2023/12/25 02:12:16;;;;;;;7.65;2.80;;;;;;;8.53;100.00;99169.56;6343723;27;20047;-75
2023/12/25 02:15:18;;;;;;;5.80;2.88;;;;;;;8.32;100.00;99172.63;6329303;28;20087;-74
2023/12/25 02:18:18;;;;;;;5.68;3.00;;;;;;;8.36;100.00;99165.44;6295318;28;20048;-75
2023/12/25 02:21:22;;;;;;;7.65;2.88;;;;;;;8.41;100.00;99161.63;6296280;28;20054;-78
2023/12/25 02:24:29;;;;;;;5.60;2.90;;;;;;;8.41;100.00;99159.03;6297287;28;20083;-79
2023/12/25 02:27:33;;;;;;;5.40;3.47;;;;;;;8.33;100.00;99150.88;6295675;28;20056;-75
2023/12/25 02:30:36;;;;;;;12.10;4.00;;;;;;;8.36;100.00;99153.28;6295484;28;20480;-75
2023/12/25 02:33:38;;;;;;;7.30;3.45;;;;;;;8.31;100.00;99154.53;6295964;28;20505;-75
2023/12/25 02:36:39;;;;;;;11.60;2.97;;;;;;;8.29;100.00;99175.41;6302148;28;20447;-76
2023/12/25 02:39:40;;;;;;;9.35;4.30;;;;;;;8.39;100.00;99181.66;6307050;28;20062;-76
2023/12/25 02:42:40;;;;;;;7.20;3.88;;;;;;;8.52;100.00;99188.69;6310572;28;20385;-76
2023/12/25 02:45:41;;;;;;;15.27;6.03;;;;;;;8.40;100.00;99185.94;6293714;28;20056;-76
2023/12/25 02:48:45;;;;;;;9.32;5.15;;;;;;;8.47;100.00;99176.00;6296482;28;20109;-76
2023/12/25 02:51:45;;;;;;;11.18;4.32;;;;;;;8.45;100.00;99180.47;6329129;28;20055;-76
2023/12/25 02:54:49;;;;;;;9.15;4.50;;;;;;;8.50;100.00;99164.56;6294982;28;20044;-79
2023/12/25 02:57:49;;;;;;;9.27;4.07;;;;;;;8.39;100.00;99183.44;6296040;28;20385;-79
2023/12/25 03:00:50;;;;;;;10.15;5.18;;;;;;;8.45;100.00;99176.09;6306317;28;20052;-79
2023/12/25 03:03:51;;;;;;;7.38;4.65;;;;;;;8.46;100.00;99174.31;6292865;28;20053;-78
2023/12/25 03:06:55;;;;;;;6.97;4.50;;;;;;;8.53;100.00;99174.78;6295165;28;20623;-79
2023/12/25 03:09:58;;;;;;;10.18;5.07;;;;;;;8.48;100.00;99180.25;6295008;28;20080;-78
2023/12/25 03:13:01;;;;;;;16.23;5.88;;;;;;;8.45;100.00;99170.91;6294622;28;20400;-75
2023/12/25 03:16:06;;;;;;;6.95;4.82;;;;;;;8.55;100.00;99173.72;6295790;28;20404;-75
2023/12/25 03:19:07;;;;;;;7.93;4.70;;;;;;;8.64;100.00;99178.31;6303483;28;20101;-75
2023/12/25 03:22:08;;;;;;;8.52;4.78;;;;;;;8.48;100.00;99164.66;6296053;28;20049;-75
2023/12/25 03:25:09;;;;;;;13.38;5.45;;;;;;;8.56;100.00;99172.78;6294882;28;20044;-79
2023/12/25 03:28:10;;;;;;;12.02;5.90;;;;;;;8.65;100.00;99172.19;6294292;28;20053;-79
2023/12/25 03:31:14;;;;;;;8.05;4.95;;;;;;;8.75;100.00;99187.16;6296806;28;20044;-79
2023/12/25 03:34:18;;;;;;;13.05;5.45;;;;;;;8.66;100.00;99168.63;6294047;28;20053;-78
2023/12/25 03:37:19;;;;;;;12.68;4.88;;;;;;;8.81;100.00;99181.53;6301777;28;20049;-75
2023/12/25 03:40:20;;;;;;;11.27;5.07;;;;;;;8.73;100.00;99173.41;6292709;28;20045;-78
2023/12/25 03:43:23;;;;;;;7.80;4.50;;;;;;;8.84;100.00;99178.75;6291575;28;20516;-78
2023/12/25 03:46:23;;;;;;;;;;;;;;;8.73;100.00;99171.69;6301016;28;20048;-74
2023/12/25 03:49:29;;;;;;;11.15;4.50;;;;;;;8.75;100.00;99167.19;6293729;28;19927;-75
2023/12/25 03:52:30;;;;;;;15.93;4.97;;;;;;;8.63;100.00;99170.63;6306036;28;20036;-74
2023/12/25 03:55:31;;;;;;;9.68;4.35;;;;;;;8.70;100.00;99165.84;6293680;28;20075;-75
2023/12/25 03:58:35;;;;;;;12.30;5.03;;;;;;;8.73;100.00;99176.03;6301827;28;20362;-77
2023/12/25 04:01:42;;;;;;;14.00;4.35;;;;;;;8.58;100.00;99162.28;6333529;27;20048;-74
2023/12/25 04:04:46;;;;;;;8.50;4.10;;;;;;;8.56;100.00;99172.78;6301688;28;20049;-74
2023/12/25 04:07:47;;;;;;;8.18;4.35;;;;;;;8.59;100.00;99172.59;6324075;28;20496;-75
2023/12/25 04:10:49;;;;;;;11.27;3.70;;;;;;;8.62;100.00;99169.78;6324163;28;20047;-75
2023/12/25 04:13:54;;;;;;;8.45;4.78;;;;;;;8.65;100.00;99171.34;6319207;28;20044;-74
2023/12/25 04:16:55;;;;;;;9.40;4.30;;;;;;;8.68;100.00;99165.94;6312282;28;20059;-74
2023/12/25 04:19:56;;;;;;;12.63;3.95;;;;;;;9.02;100.00;99168.88;6316069;28;20045;-75
2023/12/25 04:22:59;;;;;;;9.38;4.30;;;;;;;8.90;100.00;99180.09;6296529;28;20050;-74
2023/12/25 04:26:03;;;;;;;14.60;5.32;;;;;;;8.95;100.00;99172.81;6300049;28;20497;-77
2023/12/25 04:29:04;;;;;;;17.60;4.63;;;;;;;8.94;100.00;99181.56;6296890;28;20094;-78
2023/12/25 04:32:05;;;;;;;12.48;4.60;;;;;;;8.90;100.00;99180.94;6298433;28;20516;-78
2023/12/25 04:35:06;;;;;;;7.72;4.28;;;;;;;8.88;100.00;99188.00;6301061;28;20055;-77
2023/12/25 04:38:07;;;;;;;6.55;4.22;;;;;;;8.67;100.00;99175.50;6297767;28;20409;-78
2023/12/25 04:41:08;;;;;;;9.55;4.63;;;;;;;8.93;100.00;99185.09;6296977;28;20303;-77
2023/12/25 04:44:10;;;;;;;10.23;3.72;;;;;;;8.89;100.00;99187.06;6298892;28;20135;-78
2023/12/25 04:47:11;;;;;;;8.05;3.97;;;;;;;8.96;100.00;99177.91;6311902;28;20064;-78
2023/12/25 04:50:14;;;;;;;9.07;4.63;;;;;;;8.90;100.00;99178.31;6297134;28;20063;-78
2023/12/25 04:53:17;;;;;;;11.30;3.95;;;;;;;8.82;100.00;99176.25;6303501;28;20052;-77
2023/12/25 04:56:18;;;;;;;13.05;4.75;;;;;;;8.73;100.00;99189.88;6300450;28;20048;-77
2023/12/25 04:59:20;;;;;;;11.23;4.07;;;;;;;8.88;100.00;99181.03;6295446;28;20531;-78
2023/12/25 05:02:23;;;;;;;10.15;3.95;;;;;;;8.87;100.00;99174.16;6301072;28;20199;-78
2023/12/25 05:05:25;;;;;;;11.10;4.10;;;;;;;8.82;100.00;99175.41;6305436;28;20052;-78
2023/12/25 05:08:28;;;;;;;8.55;3.97;;;;;;;8.64;100.00;99173.09;6296334;28;20102;-78
2023/12/25 05:11:29;;;;;;;9.93;4.10;;;;;;;8.83;100.00;99183.13;6311362;28;20052;-78
2023/12/25 05:14:31;;;;;;;9.32;3.95;;;;;;;8.79;100.00;99179.06;6295052;28;20058;-78
2023/12/25 05:17:32;;;;;;;7.25;3.33;;;;;;;8.71;100.00;99188.28;6293977;28;20423;-78
2023/12/25 05:20:33;;;;;;;7.37;3.97;;;;;;;8.78;100.00;99187.78;6299166;28;20131;-78
2023/12/25 05:23:36;;;;;;;5.93;3.13;;;;;;;8.85;100.00;99191.66;6300844;28;20052;-77
2023/12/25 05:26:37;;;;;;;8.13;3.97;;;;;;;8.77;100.00;99187.88;6300653;28;20127;-78
2023/12/25 05:29:38;;;;;;;8.88;3.88;;;;;;;8.75;100.00;99180.19;6315971;28;20079;-77
2023/12/25 05:32:42;;;;;;;9.38;3.80;;;;;;;8.74;100.00;99181.13;6295135;28;20064;-77
2023/12/25 05:35:45;;;;;;;9.45;3.28;;;;;;;8.77;100.00;99185.28;6293713;28;20124;-74
2023/12/25 05:38:46;;;;;;;11.93;3.55;;;;;;;8.62;100.00;99187.97;6292900;28;20052;-78
2023/12/25 05:41:47;;;;;;;7.25;3.60;;;;;;;8.80;100.00;99201.53;6294591;28;20083;-74
2023/12/25 05:44:48;;;;;;;7.45;3.78;;;;;;;8.73;100.00;99202.88;6311102;28;20044;-74
2023/12/25 05:47:49;;;;;;;7.13;3.90;;;;;;;8.63;100.00;99199.22;6296687;28;20051;-74
2023/12/25 05:50:50;;;;;;;7.40;3.60;;;;;;;8.68;100.00;99204.94;6307782;28;20124;-73
2023/12/25 05:53:53;;;;;;;4.80;3.58;;;;;;;8.75;100.00;99195.81;6295282;28;20817;-77
2023/12/25 05:56:56;;;;;;;6.90;4.10;;;;;;;8.74;100.00;99188.09;6303886;28;20080;-78
2023/12/25 05:59:57;;;;;;;7.90;4.13;;;;;;;8.62;100.00;99193.19;6261548;28;1179746;-77
2023/12/25 06:02:58;;;;;;;8.18;3.55;;;;;;;8.69;100.00;99191.03;6299975;28;20043;-77
2023/12/25 06:06:02;;;;;;;4.93;2.90;;;;;;;8.62;100.00;99184.53;6294114;28;20114;-73
2023/12/25 06:09:02;;;;;;;4.28;2.85;;;;;;;8.47;100.00;99196.81;6328513;28;20060;-73
2023/12/25 06:12:06;;;;;;;6.10;3.75;;;;;;;8.57;100.00;99213.47;6299756;28;20051;-73
2023/12/25 06:15:08;;;;;;;9.13;3.85;;;;;;;8.59;100.00;99210.78;6295989;28;20132;-77
2023/12/25 06:18:09;;;;;;;6.90;3.53;;;;;;;8.57;100.00;99189.22;6293056;28;20462;-73
2023/12/25 06:21:13;;;;;;;6.60;3.58;;;;;;;8.62;100.00;99218.34;6295191;28;20048;-73
2023/12/25 06:24:14;;;;;;;7.32;3.75;;;;;;;8.63;100.00;99223.47;6300274;28;20150;-73
2023/12/25 06:27:17;;;;;;;5.53;3.03;;;;;;;8.63;100.00;99217.44;6295494;28;20082;-72
2023/12/25 06:30:18;;;;;;;8.70;3.95;;;;;;;8.62;100.00;99228.75;6294640;28;20134;-77
2023/12/25 06:33:19;;;;;;;4.82;3.03;;;;;;;8.60;100.00;99223.66;6311377;28;20485;-73
2023/12/25 06:36:20;;;;;;;4.78;3.17;;;;;;;8.66;100.00;99243.22;6293694;28;20059;-73
2023/12/25 06:39:21;;;;;;;7.72;4.10;;;;;;;8.64;100.00;99245.09;6299295;28;20183;-77
2023/12/25 06:42:24;;;;;;;7.63;3.80;;;;;;;8.68;100.00;99239.56;6304116;28;20049;-77
2023/12/25 06:45:25;;;;;;;6.78;3.70;;;;;;;8.61;100.00;99240.94;6326850;28;20498;-77
2023/12/25 06:48:29;;;;;;;6.28;3.67;;;;;;;8.60;100.00;99234.03;6311048;28;20047;-77
2023/12/25 06:51:29;;;;;;;11.45;4.85;;;;;;;8.52;100.00;99241.50;6319068;28;20052;-77
2023/12/25 06:54:30;;;;;;;11.02;4.35;;;;;;;8.72;100.00;99236.78;6301832;28;20139;-77
2023/12/25 06:57:31;;;;;;;5.30;3.17;;;;;;;8.79;100.00;99227.63;6301456;28;20475;-74
2023/12/25 07:00:32;;;;;;;6.18;3.05;;;;;;;8.86;100.00;99231.50;6293899;28;20052;-73
2023/12/25 07:03:33;;;;;;;7.53;3.33;;;;;;;8.93;100.00;99232.75;6312229;28;20091;-77
2023/12/25 07:06:34;;;;;;;6.00;3.00;;;;;;;8.98;100.00;99228.06;6301169;28;20413;-77
2023/12/25 07:09:41;;;;;;;3.42;2.40;;;;;;;8.96;100.00;99237.75;6297074;28;20066;-72
2023/12/25 07:12:43;;;;;;;5.05;3.00;;;;;;;9.06;100.00;99254.41;6302644;28;20105;-77
2023/12/25 07:15:43;;;;;;;7.20;2.97;;;;;;;9.11;100.00;99258.47;6300164;28;20452;-72
2023/12/25 07:18:47;;;;;;;5.05;3.20;;;;;;;9.24;100.00;99265.31;6301043;28;20051;-73
2023/12/25 07:21:48;;;;;;;5.90;3.58;;;;;;;9.20;100.00;99273.47;6318568;28;20051;-73
2023/12/25 07:24:48;;;;;;;3.28;2.58;;;;;;;9.31;100.00;99267.50;6296576;28;20044;-73
2023/12/25 07:27:49;;;;;;;4.13;2.88;;;;;;;9.37;100.00;99282.72;6327317;27;20081;-74
2023/12/25 07:30:50;;;;;;;5.88;2.50;;;;;;;9.26;100.00;99273.88;6326384;28;20390;-73
2023/12/25 07:33:51;;;;;;;4.57;3.10;;;;;;;9.41;100.00;99285.03;6292574;28;20438;-77
2023/12/25 07:36:54;;;;;;;4.05;2.72;;;;;;;9.51;100.00;99284.38;6298448;28;20128;-77
2023/12/25 07:39:55;;;;;;;5.78;3.00;;;;;;;9.54;100.00;99294.59;6301761;28;20062;-77
2023/12/25 07:42:56;;;;;;;3.95;2.80;;;;;;;9.57;100.00;99295.19;6295634;28;20060;-73
2023/12/25 07:45:59;;;;;;;9.00;3.05;;;;;;;9.73;100.00;99281.13;6310938;28;20044;-74
2023/12/25 07:49:00;;;;;;;5.22;3.28;;;;;;;9.58;100.00;99291.69;6324958;28;20040;-74
2023/12/25 07:52:01;;;;;;;6.10;3.40;;;;;;;9.71;100.00;99301.25;6294903;28;20178;-73
2023/12/25 07:55:03;;;;;;;6.57;2.78;;;;;;;9.74;100.00;99301.88;6301928;28;20412;-74
2023/12/25 07:58:04;;;;;;;5.35;2.55;;;;;;;9.84;100.00;99302.03;6306729;28;20060;-74
2023/12/25 08:01:05;;;;;;;9.18;5.18;;;;;;;10.02;100.00;99308.56;6304632;28;20127;-73
2023/12/25 08:04:06;;;;;;;5.47;2.83;;;;;;;9.86;100.00;99323.63;6293724;28;20052;-77
2023/12/25 08:07:06;;;;;;;6.20;3.08;;;;;;;10.03;100.00;99327.66;6294188;28;20049;-73
2023/12/25 08:10:08;;;;;;;6.32;2.67;;;;;;;9.98;100.00;99327.16;6313281;28;20460;-73
2023/12/25 08:13:09;;;;;;;3.20;2.50;;;;;;;10.16;100.00;99338.88;6301712;28;20051;-72
2023/12/25 08:16:10;;;;;;;23.63;9.95;;;;;;;10.14;100.00;99337.34;6324710;28;20409;-73
2023/12/25 08:19:11;;;;;;;18.52;9.18;;;;;;;10.06;100.00;99348.28;6293085;28;20048;-73
2023/12/25 08:22:12;;;;;;;35.78;16.40;;;;;;;10.19;100.00;99354.31;6294778;28;20060;-73
2023/12/25 08:25:13;;;;;;;18.85;12.48;;;;;;;10.19;100.00;99358.69;6293796;28;20436;-72
2023/12/25 08:28:14;;;;;;;5.18;3.28;;;;;;;10.23;100.00;99365.34;6310638;28;20181;-72
2023/12/25 08:31:15;;;;;;;16.58;2.40;;;;;;;10.11;100.00;99376.63;6295641;28;20416;-73
2023/12/25 08:34:16;;;;;;;10.52;2.58;;;;;;;10.25;100.00;99372.16;6291424;28;20495;-73
2023/12/25 08:37:17;;;;;;;2.53;1.98;;;;;;;10.23;100.00;99365.34;6297881;28;20492;-72
2023/12/25 08:40:20;;;;;;;3.22;2.47;;;;;;;10.32;100.00;99367.34;6297439;28;20420;-72
2023/12/25 08:43:20;;;;;;;6.03;2.35;;;;;;;10.35;100.00;99354.09;6342101;27;20480;-72
2023/12/25 08:46:22;;;;;;;6.78;2.30;;;;;;;10.26;100.00;99352.94;6300683;28;20090;-76
2023/12/25 08:49:23;;;;;;;2.95;2.00;;;;;;;10.25;100.00;99361.72;6304208;28;20052;-76
2023/12/25 08:52:24;;;;;;;6.25;1.98;;;;;;;10.46;100.00;99364.59;6314969;28;20136;-76
2023/12/25 08:55:25;;;;;;;3.90;2.05;;;;;;;10.40;100.00;99372.03;6307221;28;20053;-72
2023/12/25 08:58:31;;;;;;;5.97;2.33;;;;;;;10.47;100.00;99381.06;6302785;28;20135;-76
2023/12/25 09:01:32;;;;;;;2.55;1.48;;;;;;;10.54;100.00;99394.50;6310296;28;20055;-73
2023/12/25 09:04:32;;;;;;;4.15;1.60;;;;;;;10.69;100.00;99396.84;6300213;28;20416;-73
2023/12/25 09:07:33;;;;;;;6.43;1.90;;;;;;;10.65;100.00;99384.97;6318528;28;20052;-76
2023/12/25 09:10:34;;;;;;;3.30;2.35;;;;;;;10.62;100.00;99389.56;6317591;28;20044;-77
2023/12/25 09:13:35;;;;;;;4.47;2.80;;;;;;;10.62;100.00;99395.63;6316745;28;20044;-77
2023/12/25 09:16:36;;;;;;;5.28;2.78;;;;;;;10.65;100.00;99377.16;6309240;28;20044;-76
2023/12/25 09:19:37;;;;;;;4.63;2.67;;;;;;;10.61;100.00;99374.88;6321175;28;20044;-77
2023/12/25 09:22:38;;;;;;;7.63;3.90;;;;;;;10.55;100.00;99357.88;6322538;28;20450;-72
2023/12/25 09:25:43;;;;;;;4.72;2.30;;;;;;;10.53;100.00;99382.41;6322272;28;20055;-72
2023/12/25 09:28:44;;;;;;;5.05;2.13;;;;;;;10.56;100.00;99383.00;6319822;28;20047;-76
2023/12/25 09:31:45;;;;;;;4.75;2.97;;;;;;;10.50;100.00;99367.84;6310084;28;20109;-76
2023/12/25 09:34:46;;;;;;;4.85;2.65;;;;;;;10.34;100.00;99362.03;6320912;28;20055;-72
2023/12/25 09:37:49;;;;;;;6.95;3.50;;;;;;;10.48;100.00;99373.16;6321703;28;20044;-72
2023/12/25 09:40:52;;;;;;;7.00;3.00;;;;;;;10.65;100.00;99376.31;6320790;28;20415;-72
2023/12/25 09:43:55;;;;;;;8.18;3.67;;;;;;;10.56;100.00;99371.75;6315660;28;20048;-72
2023/12/25 09:46:57;;;;;;;5.38;2.85;;;;;;;10.69;100.00;99381.19;6306786;28;20052;-72
2023/12/25 09:49:59;;;;;;;6.60;3.50;;;;;;;10.66;100.00;99383.19;6321934;28;20048;-72
2023/12/25 09:53:03;;;;;;;8.70;4.07;;;;;;;10.66;100.00;99377.97;6320327;28;20450;-72
2023/12/25 09:56:10;;;;;;;5.80;3.13;;;;;;;10.63;100.00;99363.38;6321445;28;20164;-73
2023/12/25 09:59:11;;;;;;;7.18;3.25;;;;;;;10.68;100.00;99357.81;6301547;28;20053;-72
2023/12/25 10:02:14;;;;;;;5.88;3.10;;;;;;;10.78;100.00;99363.22;6303319;28;20135;-72
2023/12/25 10:05:18;;;;;;;6.18;2.97;;;;;;;10.69;100.00;99362.13;6318684;28;20051;-73
2023/12/25 10:08:19;;;;;;;3.70;2.58;;;;;;;10.85;100.00;99354.84;6304235;28;20078;-73
2023/12/25 10:11:21;;;;;;;7.40;3.13;;;;;;;10.91;100.00;99348.31;6319293;28;20044;-72
2023/12/25 10:14:22;;;;;;;5.80;3.25;;;;;;;10.93;100.00;99364.69;6317796;28;20048;-73
2023/12/25 10:17:22;;;;;;;6.07;3.35;;;;;;;10.98;100.00;99353.94;6295972;28;20345;-72
2023/12/25 10:20:23;;;;;;;5.60;2.92;;;;;;;11.11;100.00;99361.69;6295678;28;20048;-76
2023/12/25 10:23:33;;;;;;;4.35;2.78;;;;;;;11.11;100.00;99369.50;6294194;28;20048;-76
2023/12/25 10:26:34;;;;;;;3.72;2.53;;;;;;;11.35;100.00;99366.88;6294366;28;20052;-77
2023/12/25 10:29:38;;;;;;;4.93;2.50;;;;;;;11.36;100.00;99371.13;6295673;28;20051;-77
2023/12/25 10:32:38;;;;;;;5.47;2.17;;;;;;;11.45;100.00;99373.88;6308020;28;20040;-77
2023/12/25 10:35:41;;;;;;;6.97;2.22;;;;;;;11.62;100.00;99362.16;6315404;28;20473;-73
2023/12/25 10:38:44;;;;;;;3.35;2.15;;;;;;;11.79;99.86;99349.56;6309967;28;20040;-73
2023/12/25 10:41:45;;;;;;;5.18;2.38;;;;;;;11.69;99.68;99345.06;6302977;28;20048;-72
2023/12/25 10:44:49;;;;;;;5.85;2.30;;;;;;;11.81;98.41;99331.97;6316615;28;20116;-73
2023/12/25 10:47:57;;;;;;;4.53;1.92;;;;;;;11.88;97.21;99320.97;6294369;28;20485;-77
2023/12/25 10:50:59;;;;;;;4.72;2.50;;;;;;;11.95;96.68;99325.72;6294075;28;20040;-77
2023/12/25 10:54:02;;;;;;;4.43;2.55;;;;;;;12.03;95.78;99336.41;6311155;28;20102;-77
2023/12/25 10:57:07;;;;;;;3.53;1.85;;;;;;;12.10;94.19;99327.13;6300071;28;20071;-73
2023/12/25 11:00:10;;;;;;;4.03;2.00;;;;;;;12.27;94.43;99323.16;6312852;28;20067;-72
2023/12/25 11:03:14;;;;;;;4.10;1.65;;;;;;;12.16;94.21;99313.56;6319086;28;20075;-76
2023/12/25 11:06:17;;;;;;;2.30;1.55;;;;;;;12.18;93.53;99313.44;6317332;28;20055;-77
2023/12/25 11:09:22;;;;;;;2.65;1.90;;;;;;;12.17;93.75;99317.00;6315297;28;20106;-72
2023/12/25 11:12:23;;;;;;;3.17;1.98;;;;;;;12.09;94.92;99325.47;6318789;28;20098;-72
2023/12/25 11:15:24;;;;;;;4.95;2.30;;;;;;;12.06;95.86;99321.28;6316246;28;20466;-72
2023/12/25 11:18:26;;;;;;;8.27;3.00;;;;;;;12.02;95.42;99338.16;6306340;28;20044;-72
2023/12/25 11:21:32;;;;;;;7.00;3.05;;;;;;;11.98;95.68;99341.16;6294803;28;20049;-77
2023/12/25 11:24:33;;;;;;;5.28;3.10;;;;;;;12.04;96.34;99346.72;6294422;28;20048;-73
2023/12/25 11:27:36;;;;;;;8.37;3.37;;;;;;;12.01;96.47;99315.59;6294816;28;20089;-77
2023/12/25 11:30:37;;;;;;;3.88;2.55;;;;;;;11.59;96.79;99304.06;6304622;28;20526;-77
2023/12/25 11:33:45;;;;;;;13.07;3.92;;;;;;;11.58;96.26;99302.41;6293068;28;20048;-72
2023/12/25 11:36:57;;;;;;;9.25;3.75;;;;;;;11.66;96.56;99294.81;6298841;28;20055;-72
2023/12/25 11:39:59;;;;;;;10.40;3.93;;;;;;;11.65;97.06;99290.53;6316047;28;20044;-72
2023/12/25 11:43:03;;;;;;;10.13;5.28;;;;;;;11.42;96.82;99297.53;6313722;28;20709;-72
2023/12/25 11:46:03;;;;;;;33.55;11.32;;;;;;;11.36;97.54;99318.88;6313685;28;20087;-76
2023/12/25 11:49:06;;;;;;;34.67;14.68;;;;;;;11.66;97.52;99313.94;6304412;28;20131;-76
2023/12/25 11:52:06;;;;;;;13.43;6.65;;;;;;;11.46;96.76;99327.69;6293047;28;20479;-71
2023/12/25 11:55:08;;;;;;;15.02;6.10;;;;;;;11.60;96.89;99327.47;6293200;28;20408;-73
2023/12/25 11:58:09;;;;;;;11.50;4.97;;;;;;;11.67;97.13;99336.50;6315977;28;20048;-72
2023/12/25 12:01:15;;;;;;;10.60;4.20;;;;;;;11.58;98.05;99331.16;6317994;28;20127;-73
2023/12/25 12:04:17;;;;;;;11.15;4.72;;;;;;;11.56;98.64;99326.03;6316777;28;20051;-72
2023/12/25 12:07:21;;;;;;;9.35;4.78;;;;;;;11.55;98.55;99320.91;6316923;28;20048;-72
2023/12/25 12:10:21;;;;;;;11.15;4.65;;;;;;;11.60;98.18;99324.03;6316813;28;20051;-77
2023/12/25 12:13:23;;;;;;;11.57;4.97;;;;;;;11.59;98.30;99317.13;6316918;28;20056;-76
2023/12/25 12:16:27;;;;;;;13.13;4.30;;;;;;;11.58;97.41;99320.69;6317122;28;20083;-76
2023/12/25 12:19:30;;;;;;;11.90;5.00;;;;;;;11.60;96.71;99331.88;6321380;28;20051;-76
2023/12/25 12:22:32;;;;;;;18.00;8.50;;;;;;;11.81;95.33;99324.97;6319363;28;20474;-72
2023/12/25 12:25:33;;;;;;;12.00;5.88;;;;;;;11.81;95.82;99324.97;6308361;28;20057;-77
2023/12/25 12:28:34;;;;;;;16.70;6.80;;;;;;;11.78;95.28;99332.25;6297465;28;20102;-72
2023/12/25 12:31:37;;;;;;;17.02;7.40;;;;;;;11.70;95.38;99328.41;6297192;28;20385;-72
2023/12/25 12:34:40;;;;;;;13.23;6.38;;;;;;;11.80;94.64;99332.94;6298249;28;20052;-72
2023/12/25 12:37:44;;;;;;;17.63;6.35;;;;;;;11.88;94.06;99326.19;6302361;28;20139;-72
2023/12/25 12:40:47;;;;;;;10.70;4.40;;;;;;;11.72;93.89;99320.47;6302835;28;20048;-76
2023/12/25 12:43:47;;;;;;;8.77;5.22;;;;;;;11.85;93.44;99317.72;6306623;28;20052;-77
2023/12/25 12:46:49;;;;;;;12.05;4.68;;;;;;;11.86;92.86;99317.63;6309511;28;20509;-77
2023/12/25 12:49:50;;;;;;;7.57;4.00;;;;;;;11.88;92.24;99320.09;6303812;28;20052;-77
2023/12/25 12:52:51;;;;;;;8.32;4.13;;;;;;;11.89;92.05;99321.78;6315124;28;20040;-77
2023/12/25 12:55:52;;;;;;;6.72;3.70;;;;;;;11.95;92.43;99325.72;6308208;28;20443;-76
2023/12/25 12:58:52;;;;;;;8.23;4.10;;;;;;;11.89;92.95;99340.09;6308405;28;20063;-77
2023/12/25 13:01:53;;;;;;;12.70;5.05;;;;;;;11.67;93.12;99343.50;6303357;28;20040;-76
2023/12/25 13:04:54;;;;;;;10.57;3.88;;;;;;;11.74;92.79;99331.63;6307563;28;20082;-76
2023/12/25 13:07:58;;;;;;;7.63;3.83;;;;;;;11.69;91.99;99324.16;6309790;28;20178;-72
2023/12/25 13:10:59;;;;;;;13.07;4.63;;;;;;;11.49;92.03;99340.53;6307996;28;20048;-71
2023/12/25 13:14:00;;;;;;;14.85;5.43;;;;;;;11.58;93.24;99342.44;6308246;28;20405;-71
2023/12/25 13:17:01;;;;;;;8.77;3.80;;;;;;;11.64;92.78;99338.53;6322021;28;20130;-71
2023/12/25 13:20:02;;;;;;;10.82;4.15;;;;;;;11.38;93.45;99350.94;6312394;28;20496;-71
2023/12/25 13:23:03;;;;;;;11.40;3.92;;;;;;;11.47;93.84;99340.63;6296290;28;20044;-71
2023/12/25 13:26:04;;;;;;;8.30;3.47;;;;;;;11.28;95.20;99356.88;6307124;28;20056;-71
2023/12/25 13:29:07;;;;;;;8.20;3.50;;;;;;;11.44;95.24;99363.53;6314180;28;20126;-71
2023/12/25 13:32:08;;;;;;;16.38;6.38;;;;;;;11.36;96.13;99366.72;6321067;28;20044;-71
2023/12/25 13:35:12;;;;;;;12.55;5.72;;;;;;;11.31;96.79;99370.66;6308702;28;20074;-71
2023/12/25 13:38:14;;;;;;;10.93;4.47;;;;;;;11.20;97.18;99379.25;6302109;28;20044;-72
2023/12/25 13:41:15;;;;;;;20.08;6.07;;;;;;;11.22;97.70;99382.59;6310001;28;20051;-71
2023/12/25 13:44:16;;;;;;;16.58;4.47;;;;;;;11.25;98.30;99400.66;6313587;28;20048;-72
2023/12/25 13:47:17;;;;;;;13.00;4.38;;;;;;;11.25;98.20;99390.22;6317917;28;20079;-71
2023/12/25 13:50:20;;;;;;;11.02;3.88;;;;;;;11.16;99.11;99376.06;6316905;28;20655;-71
2023/12/25 13:53:22;;;;;;;12.63;3.80;;;;;;;11.13;99.63;99368.44;6319857;28;20051;-77
2023/12/25 13:56:25;;;;;;;12.30;5.63;;;;;;;11.08;100.00;99366.19;6321123;28;20508;-77
2023/12/25 13:59:25;;;;;;;;;;;;;;;10.91;100.00;99350.91;6320586;28;20067;-76
2023/12/25 14:02:26;;;;;;;6.80;3.45;;;;;;;10.98;100.00;99346.94;6310724;28;19920;-76
2023/12/25 14:05:28;;;;;;;7.78;3.83;;;;;;;10.96;100.00;99346.22;6317165;28;20176;-76
2023/12/25 14:08:29;;;;;;;8.30;4.07;;;;;;;11.11;100.00;99340.78;6321034;28;20055;-77
2023/12/25 14:11:30;;;;;;;14.32;5.38;;;;;;;11.01;100.00;99349.28;6321153;28;20433;-71